Time;durP1;ratioP1;P1;durP2;ratioP2;P2;SDS_P1;SDS_P2;PMS_P1;PMS_P2;Temp;Humidity;BMP_temperature;BMP_pressure;BME280_temperature;BME280_humidity;BME280_pressure;Samples;Min_cycle;Max_cycle;Signal;HPM_P1;HPM_P2
2021/01/23 00:00:22;;;;;;;11.27;10.07;;;;;;;12.31;40.55;99315.28;4977669;28;97262;-76
2021/01/23 00:02:49;;;;;;;12.50;10.07;;;;;;;12.35;40.39;99313.63;4977740;28;98264;-76
2021/01/23 00:05:18;;;;;;;11.07;9.97;;;;;;;12.41;40.29;99313.75;4971820;28;98541;-76
2021/01/23 00:07:45;;;;;;;13.00;10.40;;;;;;;12.46;40.19;99312.13;4961300;28;96963;-76
2021/01/23 00:10:13;;;;;;;9.23;8.00;;;;;;;12.33;40.43;99307.44;4979521;28;97208;-76
2021/01/23 00:12:40;;;;;;;11.85;8.60;;;;;;;12.23;40.75;99304.59;4977736;28;98057;-76
2021/01/23 00:15:09;;;;;;;9.52;8.15;;;;;;;12.16;40.75;99297.41;4989619;28;98732;-76
2021/01/23 00:17:37;;;;;;;11.48;9.35;;;;;;;12.08;40.64;99292.78;4979046;28;97098;-76
2021/01/23 00:20:06;;;;;;;9.10;8.20;;;;;;;12.01;40.85;99302.31;4978444;28;97299;-76
2021/01/23 00:22:35;;;;;;;12.50;9.13;;;;;;;11.95;40.86;99299.53;4978531;28;97803;-77
2021/01/23 00:25:04;;;;;;;9.95;8.45;;;;;;;11.91;41.14;99294.16;4979575;28;99087;-76
2021/01/23 00:27:31;;;;;;;10.30;8.50;;;;;;;11.84;40.87;99292.25;4977597;28;97405;-76
2021/01/23 00:29:59;;;;;;;9.63;8.50;;;;;;;11.79;41.04;99289.50;4977457;28;97580;-76
2021/01/23 00:32:27;;;;;;;10.05;8.50;;;;;;;11.76;41.27;99285.91;4978605;28;98020;-76
2021/01/23 00:35:14;;;;;;;9.52;8.63;;;;;;;11.68;41.37;99288.34;4979539;28;97238;-76
2021/01/23 00:37:43;;;;;;;10.43;9.43;;;;;;;11.65;41.22;99282.13;4977856;28;98343;-76
2021/01/23 00:40:10;;;;;;;10.82;9.43;;;;;;;11.61;41.19;99289.00;4979324;28;97785;-76
2021/01/23 00:42:38;;;;;;;9.63;8.57;;;;;;;11.57;41.55;99281.88;4979030;28;98917;-76
2021/01/23 00:45:07;;;;;;;11.73;9.48;;;;;;;11.51;41.76;99281.75;4977063;28;97834;-77
2021/01/23 00:47:35;;;;;;;11.63;9.43;;;;;;;11.46;41.30;99272.84;4980309;28;97215;-77
2021/01/23 00:50:22;;;;;;;10.50;9.25;;;;;;;11.39;41.55;99278.78;4977672;28;97139;-77
2021/01/23 00:52:50;;;;;;;10.27;9.32;;;;;;;11.36;41.41;99280.47;4977435;28;99533;-77
2021/01/23 00:55:22;;;;;;;12.70;9.77;;;;;;;11.31;41.59;99284.72;4977400;28;98433;-77
2021/01/23 00:57:51;;;;;;;12.50;10.13;;;;;;;11.28;41.76;99280.25;4979834;28;97190;-77
2021/01/23 01:00:19;;;;;;;13.75;10.80;;;;;;;11.24;42.05;99283.66;4976967;28;97148;-77
2021/01/23 01:02:48;;;;;;;13.50;10.20;;;;;;;11.24;41.47;99292.44;4974640;28;98175;-78
2021/01/23 01:05:32;;;;;;;13.55;10.68;;;;;;;11.25;41.53;99282.81;4978302;28;98018;-77
2021/01/23 01:08:01;;;;;;;13.55;11.23;;;;;;;11.22;41.51;99278.34;4978573;28;96906;-77
2021/01/23 01:10:28;;;;;;;13.60;11.35;;;;;;;11.24;41.44;99289.81;4980066;28;97697;-77
2021/01/23 01:13:05;;;;;;;17.50;11.18;;;;;;;11.26;41.30;99279.31;4978148;28;99000;-77
2021/01/23 01:15:33;;;;;;;12.98;10.82;;;;;;;11.26;42.07;99291.59;4979165;28;97113;-76
2021/01/23 01:18:18;;;;;;;10.63;9.52;;;;;;;11.20;41.42;99300.22;4978001;28;97486;-77
2021/01/23 01:20:46;;;;;;;10.90;9.43;;;;;;;11.15;41.76;99291.28;4978354;28;97074;-77
2021/01/23 01:23:14;;;;;;;12.27;9.50;;;;;;;11.14;42.21;99305.28;4976000;28;99894;-77
2021/01/23 01:25:42;;;;;;;11.32;9.52;;;;;;;11.13;41.84;99300.91;4979357;28;97795;-77
2021/01/23 01:28:11;;;;;;;12.68;10.48;;;;;;;11.13;41.90;99307.03;4978793;28;96714;-77
2021/01/23 01:30:39;;;;;;;13.10;10.60;;;;;;;11.14;41.83;99319.31;4978440;28;97946;-77
2021/01/23 01:33:06;;;;;;;16.63;13.07;;;;;;;11.24;42.33;99307.31;4978691;28;102222;-77
2021/01/23 01:35:34;;;;;;;12.80;11.43;;;;;;;11.21;42.14;99313.38;4978389;28;97804;-77
2021/01/23 01:38:02;;;;;;;11.80;10.50;;;;;;;11.16;41.78;99307.13;4977990;28;97124;-77
2021/01/23 01:40:33;;;;;;;16.73;11.82;;;;;;;11.15;41.89;99307.06;4976042;28;97343;-77
2021/01/23 01:43:01;;;;;;;13.43;11.30;;;;;;;11.15;42.25;99300.06;4978418;28;100908;-77
2021/01/23 01:45:29;;;;;;;13.60;11.25;;;;;;;11.14;41.91;99305.28;4975325;28;99269;-77
2021/01/23 01:47:56;;;;;;;14.10;12.60;;;;;;;11.26;42.38;99295.09;4975213;28;97342;-77
2021/01/23 01:50:25;;;;;;;17.60;13.25;;;;;;;11.34;42.44;99304.09;4975221;28;96900;-77
2021/01/23 01:52:52;;;;;;;11.15;10.00;;;;;;;11.27;42.42;99286.38;4978556;28;97945;-77
2021/01/23 01:55:20;;;;;;;13.23;11.02;;;;;;;11.26;42.19;99286.34;4967181;28;97878;-76
2021/01/23 01:57:48;;;;;;;12.88;10.80;;;;;;;11.28;42.04;99279.38;4975481;28;96874;-76
2021/01/23 02:00:18;;;;;;;14.00;12.45;;;;;;;11.43;41.95;99275.41;4975102;28;97198;-77
2021/01/23 02:02:55;;;;;;;14.98;11.10;;;;;;;11.41;42.11;99277.09;4977531;28;98195;-78
2021/01/23 02:05:26;;;;;;;13.90;9.95;;;;;;;11.36;41.96;99270.84;4975872;28;98181;-77
2021/01/23 02:08:01;;;;;;;14.38;12.10;;;;;;;11.47;41.79;99268.47;4976956;28;97979;-76
2021/01/23 02:10:38;;;;;;;12.00;10.50;;;;;;;11.37;42.24;99272.59;4977458;28;97510;-76
2021/01/23 02:13:17;;;;;;;15.48;12.70;;;;;;;11.49;42.02;99280.81;4975433;28;99533;-77
2021/01/23 02:15:48;;;;;;;11.82;10.63;;;;;;;11.42;41.99;99281.53;4973971;28;97831;-76
2021/01/23 02:18:16;;;;;;;11.90;9.02;;;;;;;11.40;42.47;99292.84;4978108;28;97648;-77
2021/01/23 02:21:20;;;;;;;12.40;9.93;;;;;;;11.34;41.83;99285.69;4976810;28;97000;-77
2021/01/23 02:23:48;;;;;;;11.55;10.45;;;;;;;11.30;42.53;99296.06;4969686;28;99012;-77
2021/01/23 02:26:19;;;;;;;11.98;10.45;;;;;;;11.28;42.12;99288.13;4978725;28;98978;-78
2021/01/23 02:29:04;;;;;;;17.15;12.57;;;;;;;11.40;42.26;99290.22;4976901;28;97274;-77
2021/01/23 02:31:35;;;;;;;16.77;13.40;;;;;;;11.47;42.15;99290.41;4980840;28;96926;-77
2021/01/23 02:34:04;;;;;;;13.55;11.00;;;;;;;11.40;42.44;99292.84;4980513;28;99331;-77
2021/01/23 02:36:31;;;;;;;12.45;10.75;;;;;;;11.38;42.26;99286.66;4980849;28;99949;-77
2021/01/23 02:39:01;;;;;;;11.93;10.10;;;;;;;11.33;42.52;99288.28;4981565;28;97767;-77
2021/01/23 02:41:29;;;;;;;12.93;10.20;;;;;;;11.29;42.67;99289.94;4976426;28;97089;-77
2021/01/23 02:43:56;;;;;;;13.75;12.27;;;;;;;11.40;42.37;99291.09;4979253;28;98197;-77
2021/01/23 02:46:24;;;;;;;12.77;10.48;;;;;;;11.39;42.29;99298.94;4980964;28;98169;-76
2021/01/23 02:48:53;;;;;;;12.48;10.50;;;;;;;11.30;41.83;99296.97;4979426;28;98341;-77
2021/01/23 02:51:30;;;;;;;11.18;9.90;;;;;;;11.23;42.34;99290.66;4981263;28;97490;-77
2021/01/23 02:54:02;;;;;;;10.98;9.98;;;;;;;11.22;42.14;99294.13;4979607;28;99407;-77
2021/01/23 02:56:32;;;;;;;11.27;10.05;;;;;;;11.24;42.03;99296.78;4981520;28;99162;-77
2021/01/23 02:59:02;;;;;;;10.30;9.23;;;;;;;11.23;42.26;99295.03;4978989;28;97361;-76
2021/01/23 03:01:32;;;;;;;11.73;10.27;;;;;;;11.19;42.46;99298.41;4977754;28;97120;-77
2021/01/23 03:04:21;;;;;;;14.68;10.85;;;;;;;11.17;42.54;99308.00;4978809;28;97947;-77
2021/01/23 03:06:49;;;;;;;11.52;10.27;;;;;;;11.17;42.54;99316.78;4977560;28;98193;-77
2021/01/23 03:09:18;;;;;;;12.73;10.55;;;;;;;11.17;42.65;99315.88;4976008;28;97774;-77
2021/01/23 03:11:45;;;;;;;11.65;9.80;;;;;;;11.15;42.67;99313.22;4979945;28;98306;-77
2021/01/23 03:14:13;;;;;;;13.15;10.43;;;;;;;11.13;42.31;99316.66;4978337;28;97961;-77
2021/01/23 03:16:46;;;;;;;13.43;11.05;;;;;;;11.10;42.33;99321.81;4979164;28;97900;-76
2021/01/23 03:19:14;;;;;;;12.45;10.45;;;;;;;11.10;42.57;99317.47;4973200;28;97625;-76
2021/01/23 03:21:42;;;;;;;11.68;9.98;;;;;;;11.12;42.61;99318.41;4979236;28;97493;-76
2021/01/23 03:24:10;;;;;;;14.40;11.13;;;;;;;11.10;42.66;99321.81;4979667;28;99035;-76
2021/01/23 03:26:37;;;;;;;12.73;10.27;;;;;;;11.10;42.27;99324.44;4977870;28;98843;-76
2021/01/23 03:29:05;;;;;;;12.80;10.40;;;;;;;11.08;42.30;99329.66;4978103;28;97353;-76
2021/01/23 03:31:33;;;;;;;12.38;10.73;;;;;;;11.08;42.41;99334.03;4979904;28;97844;-77
2021/01/23 03:34:01;;;;;;;10.98;9.88;;;;;;;11.09;42.46;99327.94;4976791;28;98313;-77
2021/01/23 03:36:29;;;;;;;12.98;9.73;;;;;;;11.09;42.09;99333.19;4975881;28;102323;-76
2021/01/23 03:38:57;;;;;;;13.23;9.73;;;;;;;11.05;42.15;99331.31;4977423;28;98156;-76
2021/01/23 03:41:25;;;;;;;11.35;10.05;;;;;;;11.05;42.39;99333.94;4977629;28;97604;-76
2021/01/23 03:43:52;;;;;;;12.90;10.48;;;;;;;11.03;42.30;99327.75;4978810;28;98400;-76
2021/01/23 03:46:20;;;;;;;16.13;11.02;;;;;;;11.03;41.91;99328.66;4977954;28;99221;-76
2021/01/23 03:48:48;;;;;;;11.48;10.15;;;;;;;11.05;42.37;99328.69;4978798;28;97127;-76
2021/01/23 03:51:15;;;;;;;12.50;11.15;;;;;;;11.02;42.71;99326.84;4978429;28;97331;-76
2021/01/23 03:53:43;;;;;;;12.98;10.52;;;;;;;11.06;42.57;99333.09;4978738;28;101501;-73
2021/01/23 03:56:11;;;;;;;11.38;10.23;;;;;;;11.08;42.38;99326.13;4981734;28;97756;-78
2021/01/23 03:58:58;;;;;;;12.38;10.10;;;;;;;11.06;42.08;99326.09;4985012;28;97117;-78
2021/01/23 04:01:25;;;;;;;14.30;11.35;;;;;;;11.07;41.88;99320.00;4982758;28;96981;-78
2021/01/23 04:03:53;;;;;;;13.30;10.32;;;;;;;11.10;42.26;99330.59;4981326;28;98331;-78
2021/01/23 04:06:20;;;;;;;12.52;9.95;;;;;;;11.11;42.05;99331.50;4981802;28;97807;-77
2021/01/23 04:08:48;;;;;;;14.88;10.30;;;;;;;10.98;42.54;99324.97;4980315;28;96884;-77
2021/01/23 04:11:16;;;;;;;11.32;10.13;;;;;;;10.97;42.58;99328.47;4982765;28;97374;-78
2021/01/23 04:13:44;;;;;;;14.18;12.70;;;;;;;11.06;42.90;99328.72;4979665;28;98251;-77
2021/01/23 04:16:11;;;;;;;17.02;13.45;;;;;;;11.14;43.03;99321.97;4978223;28;98947;-77
2021/01/23 04:18:39;;;;;;;14.68;11.32;;;;;;;11.09;43.10;99317.41;4978246;28;98010;-77
2021/01/23 04:21:06;;;;;;;12.60;11.30;;;;;;;11.07;42.99;99308.59;4979687;28;97920;-77
2021/01/23 04:23:34;;;;;;;15.35;13.68;;;;;;;11.18;42.93;99313.28;4979907;28;97875;-77
2021/01/23 04:26:02;;;;;;;11.75;10.38;;;;;;;11.13;42.66;99316.66;4977024;28;97943;-77
2021/01/23 04:28:30;;;;;;;13.55;10.15;;;;;;;11.10;43.05;99314.84;4977611;28;97535;-77
2021/01/23 04:30:58;;;;;;;15.03;12.60;;;;;;;11.21;42.52;99312.50;4977682;28;97588;-77
2021/01/23 04:33:25;;;;;;;14.80;11.45;;;;;;;11.14;42.82;99313.16;4977786;28;98289;-78
2021/01/23 04:35:53;;;;;;;16.77;13.55;;;;;;;11.28;42.84;99309.16;4979346;28;98195;-78
2021/01/23 04:38:20;;;;;;;16.25;11.23;;;;;;;11.21;42.50;99308.13;4980513;28;97412;-78
2021/01/23 04:40:48;;;;;;;15.10;11.00;;;;;;;11.16;42.42;99312.38;4979072;28;99278;-77
2021/01/23 04:43:15;;;;;;;14.75;10.73;;;;;;;11.14;42.28;99314.06;4982019;28;99023;-77
2021/01/23 04:45:44;;;;;;;15.07;11.35;;;;;;;11.12;42.52;99313.13;4979070;28;99873;-78
2021/01/23 04:48:11;;;;;;;14.40;11.25;;;;;;;11.13;42.56;99308.78;4980683;28;97908;-78
2021/01/23 04:50:40;;;;;;;12.90;11.02;;;;;;;11.10;42.95;99311.31;4978793;28;97701;-77
2021/01/23 04:53:07;;;;;;;14.13;10.98;;;;;;;11.05;42.93;99323.44;4977711;28;97851;-78
2021/01/23 04:55:35;;;;;;;19.63;10.75;;;;;;;11.02;42.66;99316.34;4978657;28;98100;-77
2021/01/23 04:58:03;;;;;;;11.68;10.35;;;;;;;11.02;42.63;99307.59;4980520;28;97151;-77
2021/01/23 05:00:31;;;;;;;11.82;9.95;;;;;;;11.04;42.86;99313.75;4981171;28;97039;-77
2021/01/23 05:03:00;;;;;;;13.10;10.70;;;;;;;11.03;43.00;99310.25;4976460;28;98195;-78
2021/01/23 05:05:28;;;;;;;11.95;10.55;;;;;;;11.04;42.90;99319.91;4978200;28;97606;-78
2021/01/23 05:08:06;;;;;;;14.98;10.80;;;;;;;11.02;42.91;99305.84;4977188;28;96809;-78
2021/01/23 05:10:34;;;;;;;13.48;10.55;;;;;;;11.01;42.50;99309.31;4979878;28;97523;-78
2021/01/23 05:13:12;;;;;;;13.00;11.18;;;;;;;10.99;42.40;99302.22;4977975;28;98224;-78
2021/01/23 05:15:42;;;;;;;11.88;10.05;;;;;;;10.97;42.94;99302.19;4978994;28;98039;-78
2021/01/23 05:18:11;;;;;;;13.88;12.48;;;;;;;10.98;42.24;99303.97;4977484;28;97720;-78
2021/01/23 05:20:42;;;;;;;10.88;9.80;;;;;;;11.01;42.53;99303.16;4979235;28;97714;-79
2021/01/23 05:23:11;;;;;;;10.60;9.55;;;;;;;11.03;42.44;99312.00;4977010;28;97893;-78
2021/01/23 05:25:39;;;;;;;11.48;10.00;;;;;;;11.01;42.52;99325.09;4979154;28;98364;-78
2021/01/23 05:28:09;;;;;;;14.18;10.15;;;;;;;11.01;42.14;99318.94;4978482;28;97917;-78
2021/01/23 05:30:42;;;;;;;16.88;13.75;;;;;;;11.10;42.81;99325.34;4982427;28;97284;-78
2021/01/23 05:33:12;;;;;;;14.18;11.52;;;;;;;11.08;42.24;99331.38;4979415;28;98084;-78
2021/01/23 05:35:42;;;;;;;12.73;10.13;;;;;;;11.09;42.94;99330.56;4978068;28;98197;-78
2021/01/23 05:38:20;;;;;;;13.93;10.90;;;;;;;11.09;42.26;99322.69;4976749;28;97368;-78
2021/01/23 05:40:49;;;;;;;14.20;10.32;;;;;;;11.07;42.46;99327.91;4977352;28;97136;-76
2021/01/23 05:43:32;;;;;;;11.77;10.32;;;;;;;11.08;43.01;99332.28;4978131;28;99159;-77
2021/01/23 05:46:00;;;;;;;13.35;10.68;;;;;;;11.10;42.43;99332.31;4963726;28;98966;-77
2021/01/23 05:48:30;;;;;;;14.00;10.55;;;;;;;11.10;42.48;99338.47;4977878;28;98272;-78
2021/01/23 05:50:58;;;;;;;13.00;10.30;;;;;;;11.09;42.71;99334.06;4979959;28;97700;-77
2021/01/23 05:53:25;;;;;;;14.98;10.68;;;;;;;11.05;43.02;99331.31;4979475;28;97849;-77
2021/01/23 05:55:53;;;;;;;12.52;9.95;;;;;;;11.03;42.34;99328.66;4978014;28;98568;-78
2021/01/23 05:58:21;;;;;;;13.73;10.77;;;;;;;11.04;42.25;99340.03;4976753;28;97837;-77
2021/01/23 06:00:48;;;;;;;19.33;13.43;;;;;;;11.14;42.62;99355.22;4978299;28;97729;-77
2021/01/23 06:03:16;;;;;;;15.52;11.15;;;;;;;11.13;42.87;99343.81;4978553;28;97977;-78
2021/01/23 06:05:45;;;;;;;15.70;11.25;;;;;;;11.15;43.04;99346.47;4976195;28;98133;-78
2021/01/23 06:08:12;;;;;;;14.10;11.30;;;;;;;11.15;42.68;99349.09;4979587;28;97314;-77
2021/01/23 06:10:41;;;;;;;14.63;10.77;;;;;;;11.16;42.78;99349.19;4976439;28;97015;-77
2021/01/23 06:13:37;;;;;;;16.75;10.63;;;;;;;11.14;42.95;99352.59;4976702;28;97808;-77
2021/01/23 06:16:06;;;;;;;13.93;10.30;;;;;;;11.16;42.38;99358.78;4977436;28;99253;-78
2021/01/23 06:18:34;;;;;;;15.80;11.63;;;;;;;11.11;42.78;99361.28;4977259;28;98862;-78
2021/01/23 06:21:03;;;;;;;16.17;11.95;;;;;;;11.10;42.62;99364.75;4978202;28;97570;-77
2021/01/23 06:23:51;;;;;;;15.73;10.98;;;;;;;11.11;42.62;99363.03;4977109;28;98091;-78
2021/01/23 06:26:19;;;;;;;16.30;11.15;;;;;;;11.13;42.13;99359.56;4979592;28;97901;-78
2021/01/23 06:29:04;;;;;;;21.65;15.23;;;;;;;11.22;42.36;99356.34;4982422;28;98133;-77
2021/01/23 06:31:33;;;;;;;21.80;16.33;;;;;;;11.37;42.96;99359.34;4982067;28;97741;-78
2021/01/23 06:34:17;;;;;;;18.52;11.65;;;;;;;11.36;42.78;99360.22;4977148;28;100016;-78
2021/01/23 06:36:45;;;;;;;16.80;12.32;;;;;;;11.37;42.79;99361.97;4978109;28;97623;-78
2021/01/23 06:39:13;;;;;;;20.17;11.35;;;;;;;11.36;42.60;99362.84;4978317;28;97882;-78
2021/01/23 06:41:41;;;;;;;19.38;12.02;;;;;;;11.38;42.21;99360.25;4977206;28;99434;-78
2021/01/23 06:44:10;;;;;;;18.00;13.25;;;;;;;11.37;42.17;99367.25;4979404;28;97821;-78
2021/01/23 06:46:39;;;;;;;15.63;11.63;;;;;;;11.33;42.44;99375.03;4977535;28;98332;-77
2021/01/23 06:49:08;;;;;;;18.38;12.50;;;;;;;11.34;42.10;99387.31;4977239;28;97122;-78
2021/01/23 06:51:35;;;;;;;16.58;11.88;;;;;;;11.32;42.67;99383.75;4979633;28;97435;-78
2021/01/23 06:54:11;;;;;;;19.25;12.77;;;;;;;11.29;42.38;99376.69;4974377;28;98243;-77
2021/01/23 06:56:41;;;;;;;21.40;13.20;;;;;;;11.31;42.52;99380.25;4979038;28;98582;-78
2021/01/23 06:59:20;;;;;;;17.27;11.95;;;;;;;11.35;42.38;99378.59;4977311;28;97179;-78
2021/01/23 07:01:55;;;;;;;26.85;17.60;;;;;;;11.43;42.30;99380.56;4981478;28;97439;-78
2021/01/23 07:04:23;;;;;;;24.52;15.45;;;;;;;11.43;42.33;99383.19;4977100;28;97906;-77
2021/01/23 07:06:52;;;;;;;20.98;13.68;;;;;;;11.46;42.43;99380.63;4977403;28;98215;-77
2021/01/23 07:09:49;;;;;;;18.20;13.32;;;;;;;11.50;42.29;99372.00;4978223;28;96903;-77
2021/01/23 07:12:37;;;;;;;20.38;13.68;;;;;;;11.53;42.16;99379.94;4979922;28;97120;-77
2021/01/23 07:15:06;;;;;;;18.40;11.98;;;;;;;11.57;42.14;99381.81;4978412;28;99352;-77
2021/01/23 07:17:35;;;;;;;21.70;14.30;;;;;;;11.59;42.28;99379.22;4983782;28;97914;-77
2021/01/23 07:20:06;;;;;;;23.88;14.55;;;;;;;11.54;42.25;99376.50;4981627;28;97651;-76
2021/01/23 07:22:34;;;;;;;20.45;13.45;;;;;;;11.54;41.79;99376.50;4979185;28;97460;-77
2021/01/23 07:25:04;;;;;;;18.45;12.63;;;;;;;11.53;41.97;99376.44;4979673;28;98967;-78
2021/01/23 07:27:31;;;;;;;21.33;13.75;;;;;;;11.54;42.37;99384.38;4982065;28;98996;-78
2021/01/23 07:29:58;;;;;;;22.88;13.48;;;;;;;11.55;41.91;99391.41;4980863;28;96784;-78
2021/01/23 07:32:36;;;;;;;21.13;13.02;;;;;;;11.55;41.71;99387.91;4980064;28;97842;-77
2021/01/23 07:35:05;;;;;;;21.05;12.95;;;;;;;11.57;41.64;99391.47;4978615;28;98926;-77
2021/01/23 07:37:44;;;;;;;22.63;13.85;;;;;;;11.57;41.98;99392.34;4979663;28;98949;-78
2021/01/23 07:40:19;;;;;;;18.80;11.82;;;;;;;11.58;42.04;99383.63;4981937;28;96792;-77
2021/01/23 07:42:47;;;;;;;23.38;16.80;;;;;;;11.65;42.21;99388.22;4983776;28;97932;-77
2021/01/23 07:45:16;;;;;;;24.23;16.50;;;;;;;11.72;42.00;99394.50;4982605;28;99259;-77
2021/01/23 07:47:54;;;;;;;17.58;13.55;;;;;;;11.70;41.92;99394.47;4981673;28;98435;-78
2021/01/23 07:50:22;;;;;;;20.15;12.55;;;;;;;11.68;42.21;99395.28;4980218;28;97717;-77
2021/01/23 07:52:51;;;;;;;17.10;11.68;;;;;;;11.64;42.01;99389.00;4981964;28;97926;-77
2021/01/23 07:55:20;;;;;;;16.92;11.23;;;;;;;11.64;41.82;99389.00;4980258;28;98409;-77
2021/01/23 07:58:05;;;;;;;18.23;11.85;;;;;;;11.63;41.80;99387.25;4980068;28;99784;-77
2021/01/23 08:00:32;;;;;;;15.00;10.95;;;;;;;11.63;41.47;99392.50;4980332;28;97426;-77
2021/01/23 08:03:01;;;;;;;16.10;11.18;;;;;;;11.63;41.60;99391.59;4980881;28;97235;-78
2021/01/23 08:05:48;;;;;;;21.10;15.18;;;;;;;11.69;41.51;99387.44;4981901;28;98428;-78
2021/01/23 08:08:29;;;;;;;22.43;15.60;;;;;;;11.77;41.38;99385.91;4979323;28;99396;-78
2021/01/23 08:10:57;;;;;;;20.30;14.43;;;;;;;11.83;41.58;99386.06;4982562;28;97252;-76
2021/01/23 08:13:26;;;;;;;19.33;15.10;;;;;;;11.90;41.46;99392.34;4980511;28;97256;-78
2021/01/23 08:16:08;;;;;;;18.02;14.38;;;;;;;11.95;41.16;99382.84;4980646;28;98940;-78
2021/01/23 08:18:36;;;;;;;18.20;13.60;;;;;;;12.00;41.16;99384.75;4979306;28;97972;-78
2021/01/23 08:21:04;;;;;;;21.95;15.15;;;;;;;12.02;41.11;99384.78;4982003;28;96666;-75
2021/01/23 08:23:33;;;;;;;18.92;14.15;;;;;;;12.07;40.64;99381.41;4982148;28;97643;-78
2021/01/23 08:26:01;;;;;;;19.30;14.27;;;;;;;12.07;40.52;99377.88;4977747;28;97671;-75
2021/01/23 08:28:35;;;;;;;20.00;14.18;;;;;;;12.09;40.52;99384.97;4981172;28;98278;-78
2021/01/23 08:31:13;;;;;;;17.13;14.18;;;;;;;12.11;40.56;99367.50;4981635;28;97386;-75
2021/01/23 08:33:42;;;;;;;18.38;14.50;;;;;;;12.16;40.63;99360.59;4979760;28;97213;-76
2021/01/23 08:36:10;;;;;;;17.43;13.60;;;;;;;12.20;40.11;99351.91;4978267;28;98175;-77
2021/01/23 08:38:37;;;;;;;17.88;12.85;;;;;;;12.07;40.64;99349.84;4978448;28;98258;-76
2021/01/23 08:41:06;;;;;;;14.88;11.23;;;;;;;12.00;40.79;99362.81;4977315;28;97014;-76
2021/01/23 08:43:33;;;;;;;20.43;15.20;;;;;;;12.05;40.57;99361.16;4981077;28;96902;-78
2021/01/23 08:46:01;;;;;;;19.75;14.90;;;;;;;12.08;40.90;99366.50;4978121;28;98184;-78
2021/01/23 08:48:28;;;;;;;14.52;11.45;;;;;;;11.99;40.99;99371.53;4978266;28;100050;-76
2021/01/23 08:50:56;;;;;;;17.58;12.85;;;;;;;11.92;41.26;99372.25;4978514;28;97262;-77
2021/01/23 08:53:24;;;;;;;20.63;14.45;;;;;;;12.01;40.69;99372.47;4975074;28;97130;-78
2021/01/23 08:55:51;;;;;;;20.52;14.98;;;;;;;12.07;41.11;99370.88;4976536;28;97783;-78
2021/01/23 08:58:19;;;;;;;17.77;13.23;;;;;;;12.02;41.23;99377.75;4978598;28;98094;-75
2021/01/23 09:00:47;;;;;;;14.38;11.68;;;;;;;11.99;41.20;99371.53;4977839;28;96920;-74
2021/01/23 09:03:14;;;;;;;15.13;12.13;;;;;;;11.99;40.97;99376.78;4978025;28;98201;-74
2021/01/23 09:05:42;;;;;;;16.98;12.35;;;;;;;11.95;41.27;99370.56;4976252;28;98085;-75
2021/01/23 09:08:09;;;;;;;16.80;11.80;;;;;;;11.94;41.27;99367.91;4978490;28;98050;-74
2021/01/23 09:10:37;;;;;;;20.27;12.48;;;;;;;11.94;40.97;99373.16;4979478;28;97822;-75
2021/01/23 09:13:06;;;;;;;16.23;12.55;;;;;;;11.93;41.13;99361.75;4970762;28;97320;-76
2021/01/23 09:15:34;;;;;;;16.92;12.07;;;;;;;11.92;41.14;99367.88;4975211;28;99403;-74
2021/01/23 09:18:02;;;;;;;26.48;16.17;;;;;;;11.94;40.97;99368.81;4976022;28;98087;-75
2021/01/23 09:20:30;;;;;;;64.38;34.55;;;;;;;11.96;41.05;99361.84;4978000;28;97694;-78
2021/01/23 09:22:57;;;;;;;27.58;17.95;;;;;;;11.94;40.94;99368.81;4976983;28;97140;-75
2021/01/23 09:25:26;;;;;;;18.73;12.52;;;;;;;11.94;41.40;99366.19;4976070;28;98995;-75
2021/01/23 09:27:53;;;;;;;15.13;12.15;;;;;;;11.98;41.21;99365.41;4976027;28;99249;-75
2021/01/23 09:30:21;;;;;;;19.25;12.38;;;;;;;11.94;40.97;99353.00;4976427;28;97830;-76
2021/01/23 09:32:49;;;;;;;17.42;11.52;;;;;;;11.98;41.18;99351.34;4977226;28;98365;-76
2021/01/23 09:35:35;;;;;;;19.98;12.70;;;;;;;12.01;41.33;99347.03;4974348;28;98231;-76
2021/01/23 09:38:03;;;;;;;17.02;12.68;;;;;;;12.01;41.32;99351.41;4974298;28;99110;-76
2021/01/23 09:40:31;;;;;;;19.15;12.13;;;;;;;12.00;40.98;99347.91;4975615;28;97945;-75
2021/01/23 09:42:58;;;;;;;17.00;11.98;;;;;;;12.04;41.04;99341.84;4977635;28;97920;-75
2021/01/23 09:45:26;;;;;;;21.83;14.25;;;;;;;12.01;41.35;99344.41;4976965;28;97611;-74
2021/01/23 09:47:54;;;;;;;22.70;15.20;;;;;;;12.06;41.08;99336.66;4975781;28;98655;-74
2021/01/23 09:50:38;;;;;;;17.63;13.07;;;;;;;12.06;41.34;99334.00;4970730;28;97659;-74
2021/01/23 09:53:06;;;;;;;13.82;11.43;;;;;;;12.08;41.36;99329.66;4978289;28;97225;-73
2021/01/23 09:55:33;;;;;;;17.05;12.95;;;;;;;12.07;40.86;99327.88;4976645;28;98212;-76
2021/01/23 09:58:19;;;;;;;15.05;11.32;;;;;;;12.09;41.01;99324.44;4975950;28;98041;-74
2021/01/23 10:00:47;;;;;;;16.08;12.18;;;;;;;12.12;40.73;99320.97;4976226;28;98108;-74
2021/01/23 10:03:16;;;;;;;15.50;12.10;;;;;;;12.18;41.00;99310.59;4976938;28;97526;-74
2021/01/23 10:05:44;;;;;;;15.32;11.35;;;;;;;12.18;40.61;99311.50;4978134;28;98020;-73
2021/01/23 10:08:11;;;;;;;17.58;12.40;;;;;;;12.21;40.95;99308.03;4974443;28;98149;-74
2021/01/23 10:10:39;;;;;;;16.83;12.25;;;;;;;12.26;40.54;99308.16;4976623;28;97355;-74
2021/01/23 10:13:06;;;;;;;15.00;11.18;;;;;;;12.26;40.67;99308.16;4974527;28;97277;-73
2021/01/23 10:15:34;;;;;;;20.48;12.48;;;;;;;12.24;40.80;99305.47;4976409;28;99018;-74
2021/01/23 10:18:02;;;;;;;17.17;12.10;;;;;;;12.30;41.21;99305.59;4976250;28;97847;-74
2021/01/23 10:20:31;;;;;;;16.00;12.00;;;;;;;12.31;40.76;99302.13;4975934;28;97195;-73
2021/01/23 10:22:58;;;;;;;16.70;11.88;;;;;;;12.34;40.91;99296.03;4975824;28;97190;-74
2021/01/23 10:25:26;;;;;;;19.55;11.98;;;;;;;12.36;40.60;99292.59;4973113;28;99124;-74
2021/01/23 10:27:53;;;;;;;15.13;12.43;;;;;;;12.38;40.71;99290.88;4973543;28;98451;-74
2021/01/23 10:30:22;;;;;;;16.08;12.00;;;;;;;12.39;40.82;99283.88;4973921;28;97865;-74
2021/01/23 10:32:52;;;;;;;18.27;13.32;;;;;;;12.48;40.70;99284.06;4976007;28;96815;-74
2021/01/23 10:35:21;;;;;;;18.45;12.73;;;;;;;12.50;40.62;99285.84;4964682;28;98391;-73
2021/01/23 10:37:49;;;;;;;18.13;12.65;;;;;;;12.53;40.75;99282.41;4967816;28;97819;-74
2021/01/23 10:40:17;;;;;;;16.80;12.85;;;;;;;12.52;40.67;99273.63;4970945;28;97889;-74
2021/01/23 10:43:03;;;;;;;14.02;11.65;;;;;;;12.57;40.59;99279.00;4975751;28;97567;-77
2021/01/23 10:45:31;;;;;;;18.55;12.07;;;;;;;12.64;40.71;99273.91;4974060;28;98718;-77
2021/01/23 10:47:59;;;;;;;19.38;12.45;;;;;;;12.70;40.46;99278.41;4969150;28;97875;-77
2021/01/23 10:50:28;;;;;;;17.63;12.73;;;;;;;12.71;40.46;99270.53;4947911;28;98071;-77
2021/01/23 10:52:56;;;;;;;17.98;13.32;;;;;;;12.75;40.55;99274.09;4977540;28;98127;-78
2021/01/23 10:55:24;;;;;;;18.30;13.02;;;;;;;12.80;40.27;99275.06;4964238;28;98232;-79
2021/01/23 10:57:52;;;;;;;19.58;13.02;;;;;;;12.88;40.12;99270.88;4977196;28;99713;-78
2021/01/23 11:00:21;;;;;;;17.60;12.60;;;;;;;12.92;40.25;99273.56;4977613;28;97350;-76
2021/01/23 11:02:49;;;;;;;37.58;20.42;;;;;;;12.98;40.15;99272.81;4977862;28;97341;-76
2021/01/23 11:05:16;;;;;;;21.50;14.30;;;;;;;12.98;40.23;99257.00;4977765;28;99480;-77
2021/01/23 11:07:56;;;;;;;17.00;12.10;;;;;;;13.04;40.09;99265.06;4978682;28;97922;-77
2021/01/23 11:10:24;;;;;;;18.15;12.57;;;;;;;13.08;40.17;99256.34;4978058;28;99366;-76
2021/01/23 11:12:52;;;;;;;17.05;12.45;;;;;;;13.08;40.21;99265.13;4979041;28;97162;-77
2021/01/23 11:15:19;;;;;;;17.75;13.10;;;;;;;13.12;40.04;99263.44;4977806;28;98236;-77
2021/01/23 11:17:47;;;;;;;17.23;11.82;;;;;;;13.16;40.11;99267.91;4974479;28;99491;-78
2021/01/23 11:20:14;;;;;;;14.65;11.75;;;;;;;13.19;39.98;99257.44;4979248;28;97923;-77
2021/01/23 11:22:43;;;;;;;20.65;12.27;;;;;;;13.21;40.12;99255.69;4976840;28;97956;-77
2021/01/23 11:25:13;;;;;;;16.13;11.32;;;;;;;13.23;40.08;99247.84;4976370;28;98423;-73
2021/01/23 11:27:41;;;;;;;17.38;11.82;;;;;;;13.21;40.21;99245.13;4976661;28;99884;-77
2021/01/23 11:30:10;;;;;;;21.15;14.45;;;;;;;13.23;39.95;99232.88;4975255;28;97886;-77
2021/01/23 11:32:37;;;;;;;35.13;17.83;;;;;;;13.27;40.11;99228.53;4980818;28;97608;-77